Time;durP1;ratioP1;P1;durP2;ratioP2;P2;SDS_P1;SDS_P2;PMS_P1;PMS_P2;Temp;Humidity;BMP_temperature;BMP_pressure;BME280_temperature;BME280_humidity;BME280_pressure;Samples;Min_cycle;Max_cycle;Signal;HPM_P1;HPM_P2
2023/07/24 00:01:57;;;;;;;12.80;9.32;;;20.50;99.90;;;;;;5042932;28;20103;-47
2023/07/24 00:04:24;;;;;;;11.50;9.13;;;20.50;99.90;;;;;;5046309;28;20073;-42
2023/07/24 00:06:52;;;;;;;11.85;9.70;;;20.40;99.90;;;;;;5041212;28;20128;-42
2023/07/24 00:09:19;;;;;;;11.73;9.45;;;20.40;99.90;;;;;;5045286;28;20049;-53
2023/07/24 00:11:46;;;;;;;15.02;9.80;;;20.30;99.90;;;;;;5046964;28;20059;-41
2023/07/24 00:14:15;;;;;;;11.63;9.18;;;20.20;99.90;;;;;;5046468;28;20148;-46
2023/07/24 00:16:42;;;;;;;13.20;9.35;;;19.90;99.90;;;;;;5046914;28;20098;-40
2023/07/24 00:19:09;;;;;;;12.32;9.20;;;19.60;99.90;;;;;;5047039;28;20045;-49
2023/07/24 00:21:37;;;;;;;13.50;8.57;;;19.30;99.90;;;;;;5046895;28;20188;-42
2023/07/24 00:24:04;;;;;;;13.32;8.82;;;19.10;99.90;;;;;;5046751;28;20058;-42
2023/07/24 00:26:32;;;;;;;15.50;8.95;;;19.00;99.90;;;;;;5046924;28;20048;-44
2023/07/24 00:29:00;;;;;;;11.60;7.78;;;18.80;99.90;;;;;;5047438;28;20399;-44
2023/07/24 00:31:27;;;;;;;14.80;8.60;;;18.70;99.90;;;;;;5046019;28;20056;-44
2023/07/24 00:33:55;;;;;;;12.93;8.45;;;18.70;99.90;;;;;;5047354;28;20041;-41
2023/07/24 00:36:22;;;;;;;12.32;7.88;;;18.50;99.90;;;;;;5046541;28;20056;-49
2023/07/24 00:38:49;;;;;;;15.13;7.82;;;18.40;99.90;;;;;;5046670;28;20126;-42
2023/07/24 00:41:17;;;;;;;17.50;9.02;;;18.30;99.90;;;;;;5046800;28;20048;-47
2023/07/24 00:43:44;;;;;;;11.98;7.60;;;18.20;99.90;;;;;;5046954;28;20069;-41
2023/07/24 00:46:11;;;;;;;10.10;7.18;;;18.00;99.90;;;;;;5032539;28;20048;-41
2023/07/24 00:48:40;;;;;;;11.07;7.68;;;18.10;99.90;;;;;;5052407;28;20413;-48
2023/07/24 00:51:07;;;;;;;13.45;8.43;;;18.00;99.90;;;;;;5051142;28;20041;-42
2023/07/24 00:53:35;;;;;;;11.93;8.25;;;18.00;99.90;;;;;;5030144;28;20053;-48
2023/07/24 00:56:02;;;;;;;12.48;8.07;;;17.90;99.90;;;;;;5051882;28;20059;-46
2023/07/24 00:58:30;;;;;;;13.35;8.05;;;17.80;99.90;;;;;;5051621;28;20052;-45
2023/07/24 01:00:58;;;;;;;14.10;8.23;;;17.80;99.90;;;;;;5035343;28;20118;-45
2023/07/24 01:03:34;;;;;;;13.27;7.88;;;17.80;99.90;;;;;;5034049;28;20094;-43
2023/07/24 01:06:03;;;;;;;12.63;7.75;;;17.80;99.90;;;;;;5052198;28;20187;-46
2023/07/24 01:08:30;;;;;;;12.82;7.90;;;17.90;99.90;;;;;;5031404;28;20049;-42
2023/07/24 01:11:05;;;;;;;11.15;7.70;;;17.90;99.90;;;;;;5050715;28;20040;-38
2023/07/24 01:13:40;;;;;;;14.05;8.50;;;17.90;99.90;;;;;;5049117;28;20049;-39
2023/07/24 01:16:14;;;;;;;12.77;7.65;;;17.80;99.90;;;;;;5031240;28;20041;-41
2023/07/24 01:18:44;;;;;;;14.80;7.75;;;17.90;99.90;;;;;;5029555;28;20370;-42
2023/07/24 01:21:14;;;;;;;15.32;7.75;;;17.90;99.90;;;;;;5030687;28;20457;-42
2023/07/24 01:24:05;;;;;;;13.10;7.38;;;17.90;99.90;;;;;;5032868;28;20513;-44
2023/07/24 01:26:33;;;;;;;11.45;7.63;;;17.90;99.90;;;;;;5047664;28;21992;-40
2023/07/24 01:29:00;;;;;;;15.00;7.30;;;17.90;99.90;;;;;;5045647;28;20135;-42
2023/07/24 01:31:27;;;;;;;12.63;8.23;;;17.90;99.90;;;;;;5049006;28;20259;-40
2023/07/24 01:33:55;;;;;;;13.23;7.57;;;17.90;99.90;;;;;;5049524;28;20041;-41
2023/07/24 01:36:23;;;;;;;14.52;7.72;;;17.90;99.90;;;;;;5049718;28;20506;-41
2023/07/24 01:38:51;;;;;;;13.80;7.72;;;18.00;99.90;;;;;;5032347;28;20112;-45
2023/07/24 01:41:19;;;;;;;11.73;7.82;;;18.00;99.90;;;;;;5029572;28;20143;-47
2023/07/24 01:43:47;;;;;;;13.13;7.97;;;18.00;99.90;;;;;;5044943;28;20194;-44
2023/07/24 01:46:14;;;;;;;14.20;8.43;;;18.00;99.90;;;;;;5029920;28;20037;-41
2023/07/24 01:48:43;;;;;;;14.88;8.88;;;18.00;99.90;;;;;;5047917;28;21042;-45
2023/07/24 01:51:10;;;;;;;14.02;8.13;;;17.90;99.90;;;;;;5049852;28;20065;-47
2023/07/24 01:53:37;;;;;;;12.45;7.57;;;17.90;99.90;;;;;;5045609;28;20118;-38
2023/07/24 01:56:04;;;;;;;13.15;7.70;;;17.80;99.90;;;;;;5048588;28;20049;-47
2023/07/24 01:58:32;;;;;;;14.05;8.32;;;17.70;99.90;;;;;;5028514;28;20398;-42
2023/07/24 02:00:59;;;;;;;11.02;7.30;;;17.70;99.90;;;;;;5014311;28;20048;-44
2023/07/24 02:03:26;;;;;;;15.85;8.45;;;17.60;99.90;;;;;;5047326;28;20231;-42
2023/07/24 02:05:54;;;;;;;13.60;8.20;;;17.60;99.90;;;;;;5048634;28;20048;-45
2023/07/24 02:08:21;;;;;;;12.50;7.93;;;17.60;99.90;;;;;;5044725;28;20068;-40
2023/07/24 02:10:50;;;;;;;13.70;8.55;;;17.50;99.90;;;;;;5042158;28;20065;-42
2023/07/24 02:13:18;;;;;;;12.90;8.02;;;17.50;99.90;;;;;;5029492;28;20056;-47
2023/07/24 02:15:49;;;;;;;12.38;8.00;;;17.50;99.90;;;;;;5030409;28;20048;-42
2023/07/24 02:18:17;;;;;;;12.88;7.97;;;17.60;99.90;;;;;;5047059;28;20049;-45
2023/07/24 02:20:51;;;;;;;13.57;7.75;;;17.70;99.90;;;;;;5040750;28;20416;-42
2023/07/24 02:23:18;;;;;;;13.55;8.48;;;17.80;99.90;;;;;;5046914;28;20068;-43
2023/07/24 02:25:46;;;;;;;13.18;8.32;;;17.80;99.90;;;;;;5029138;28;20041;-42
2023/07/24 02:28:13;;;;;;;14.90;8.30;;;18.00;99.90;;;;;;5047004;28;20041;-41
2023/07/24 02:30:40;;;;;;;13.45;8.55;;;18.00;99.90;;;;;;5047453;28;20485;-44
2023/07/24 02:33:08;;;;;;;16.13;9.18;;;18.00;99.90;;;;;;5046174;28;20374;-47
2023/07/24 02:35:41;;;;;;;13.40;8.40;;;18.00;99.90;;;;;;5046773;28;20044;-38
2023/07/24 02:38:09;;;;;;;16.02;9.07;;;18.10;99.90;;;;;;5028357;28;20448;-42
2023/07/24 02:40:40;;;;;;;15.93;9.57;;;18.10;99.90;;;;;;5047242;28;20491;-45
2023/07/24 02:43:08;;;;;;;18.05;9.68;;;18.10;99.90;;;;;;5027306;28;20494;-41
2023/07/24 02:45:36;;;;;;;14.93;9.23;;;18.10;99.90;;;;;;5042677;28;20041;-43
2023/07/24 02:48:05;;;;;;;16.50;10.05;;;18.10;99.90;;;;;;5044473;28;20505;-49
2023/07/24 02:50:35;;;;;;;15.35;9.68;;;18.10;99.90;;;;;;5027655;28;20049;-47
2023/07/24 02:53:03;;;;;;;15.38;9.30;;;18.10;99.90;;;;;;5046501;28;20468;-45
2023/07/24 02:55:30;;;;;;;15.85;9.90;;;18.10;99.90;;;;;;5027209;28;20106;-42
2023/07/24 02:57:58;;;;;;;19.35;9.32;;;18.10;99.90;;;;;;5047011;28;20147;-42
2023/07/24 03:00:25;;;;;;;15.05;9.43;;;18.10;99.90;;;;;;5045304;28;20525;-41
2023/07/24 03:02:53;;;;;;;14.25;9.13;;;18.10;99.90;;;;;;5045573;28;20727;-43
2023/07/24 03:05:20;;;;;;;12.93;9.05;;;18.10;99.90;;;;;;5046904;28;20456;-40
2023/07/24 03:07:48;;;;;;;15.20;8.55;;;18.20;99.90;;;;;;5026444;28;20064;-41
2023/07/24 03:10:15;;;;;;;14.98;8.90;;;18.20;99.90;;;;;;5026624;28;20459;-39
2023/07/24 03:12:43;;;;;;;16.13;8.52;;;18.20;99.90;;;;;;5028207;28;20127;-44
2023/07/24 03:15:11;;;;;;;15.32;9.57;;;18.20;99.90;;;;;;5045620;28;20460;-41
2023/07/24 03:17:39;;;;;;;15.02;10.38;;;18.30;99.90;;;;;;5028383;28;20155;-45
2023/07/24 03:20:10;;;;;;;14.45;9.40;;;18.30;99.90;;;;;;5028476;28;20094;-45
2023/07/24 03:22:37;;;;;;;14.50;9.18;;;18.30;99.90;;;;;;5044694;28;20045;-46
2023/07/24 03:25:07;;;;;;;15.02;9.05;;;18.30;99.90;;;;;;5046457;28;20048;-43
2023/07/24 03:27:34;;;;;;;16.20;9.73;;;18.30;99.90;;;;;;5046081;28;20335;-39
2023/07/24 03:30:03;;;;;;;16.15;9.57;;;18.30;99.90;;;;;;5047900;28;20033;-41
2023/07/24 03:32:30;;;;;;;15.73;10.35;;;18.20;99.90;;;;;;5046908;28;20049;-43
2023/07/24 03:34:58;;;;;;;17.20;10.18;;;18.20;99.90;;;;;;5042343;28;20170;-45
2023/07/24 03:37:26;;;;;;;14.65;8.63;;;18.20;99.90;;;;;;5042718;28;20053;-46
2023/07/24 03:39:53;;;;;;;14.35;8.73;;;18.20;99.90;;;;;;5048304;28;20049;-38
2023/07/24 03:42:28;;;;;;;16.08;8.55;;;18.30;99.90;;;;;;5044701;28;20045;-45
2023/07/24 03:44:56;;;;;;;13.05;8.90;;;18.30;99.90;;;;;;5022888;28;20432;-40
2023/07/24 03:47:24;;;;;;;18.52;9.95;;;18.30;99.90;;;;;;5045388;28;20049;-41
2023/07/24 03:49:52;;;;;;;14.77;8.70;;;18.30;99.90;;;;;;5046301;28;20045;-38
2023/07/24 03:52:19;;;;;;;16.35;9.40;;;18.30;99.90;;;;;;5046498;28;20053;-43
2023/07/24 03:54:47;;;;;;;16.13;9.90;;;18.30;99.90;;;;;;5046875;28;20103;-43
2023/07/24 03:57:14;;;;;;;16.25;9.85;;;18.30;99.90;;;;;;5047765;28;20094;-48
2023/07/24 03:59:42;;;;;;;15.27;8.98;;;18.30;99.90;;;;;;5046951;28;20099;-43
2023/07/24 04:02:09;;;;;;;14.50;9.13;;;18.20;99.90;;;;;;5046697;28;20591;-40
2023/07/24 04:04:37;;;;;;;12.80;8.55;;;18.20;99.90;;;;;;5045776;28;20487;-44
2023/07/24 04:07:05;;;;;;;14.77;9.40;;;18.20;99.90;;;;;;5046850;28;20045;-46
2023/07/24 04:09:32;;;;;;;16.15;9.18;;;18.30;99.90;;;;;;5043736;28;20515;-43
2023/07/24 04:12:00;;;;;;;13.52;8.82;;;18.30;99.90;;;;;;5046138;28;20100;-40
2023/07/24 04:14:27;;;;;;;14.55;9.38;;;18.30;99.90;;;;;;5044017;28;20485;-40
2023/07/24 04:16:55;;;;;;;13.38;9.07;;;18.30;99.90;;;;;;5046637;28;20048;-46
2023/07/24 04:19:23;;;;;;;16.77;9.75;;;18.30;99.90;;;;;;5049519;28;20053;-40
2023/07/24 04:21:50;;;;;;;13.18;8.82;;;18.20;99.90;;;;;;5052641;28;20103;-41
2023/07/24 04:24:17;;;;;;;14.23;9.40;;;18.30;99.90;;;;;;5049025;28;20110;-49
2023/07/24 04:26:45;;;;;;;15.27;9.65;;;18.30;99.90;;;;;;5045456;28;20041;-40
2023/07/24 04:29:12;;;;;;;16.70;9.65;;;18.30;99.90;;;;;;5049700;28;20045;-45
2023/07/24 04:31:39;;;;;;;13.90;9.38;;;18.30;99.90;;;;;;5044534;28;20048;-48
2023/07/24 04:34:06;;;;;;;14.80;9.27;;;18.30;99.90;;;;;;5047709;28;20174;-44
2023/07/24 04:36:34;;;;;;;14.82;9.05;;;18.30;99.90;;;;;;5050696;28;20037;-43
2023/07/24 04:39:01;;;;;;;15.43;9.38;;;18.30;99.90;;;;;;5051092;28;20148;-46
2023/07/24 04:41:28;;;;;;;16.02;9.07;;;18.40;99.90;;;;;;5050542;28;20041;-42
2023/07/24 04:43:55;;;;;;;15.05;9.30;;;18.40;99.90;;;;;;5049664;28;20044;-39
2023/07/24 04:46:23;;;;;;;15.80;9.77;;;18.50;99.90;;;;;;5054533;28;20559;-43
2023/07/24 04:48:50;;;;;;;15.57;9.48;;;18.50;99.90;;;;;;5053829;28;20129;-41
2023/07/24 04:51:18;;;;;;;16.05;10.07;;;18.60;99.90;;;;;;5053288;28;20322;-42
2023/07/24 04:53:45;;;;;;;13.93;9.70;;;18.70;99.90;;;;;;5053863;28;20122;-41
2023/07/24 04:56:13;;;;;;;14.73;9.25;;;18.80;99.90;;;;;;5054623;28;20055;-44
2023/07/24 04:58:40;;;;;;;13.45;8.82;;;18.90;99.90;;;;;;5047856;28;20045;-49
2023/07/24 05:01:09;;;;;;;16.10;10.00;;;19.00;99.90;;;;;;5049399;28;20111;-42
2023/07/24 05:03:36;;;;;;;15.85;9.75;;;19.10;99.90;;;;;;5029759;28;20160;-43
2023/07/24 05:06:03;;;;;;;15.30;9.35;;;19.10;99.90;;;;;;5046799;28;20052;-39
2023/07/24 05:08:30;;;;;;;15.10;9.50;;;19.10;99.90;;;;;;5049602;28;20102;-47
2023/07/24 05:10:58;;;;;;;14.25;8.93;;;19.10;99.90;;;;;;5043727;28;20044;-45
2023/07/24 05:13:26;;;;;;;17.73;8.50;;;19.10;99.90;;;;;;5047865;28;20506;-43
2023/07/24 05:15:54;;;;;;;15.43;9.60;;;19.10;99.90;;;;;;5046486;28;20052;-39
2023/07/24 05:18:21;;;;;;;14.43;9.88;;;19.00;99.90;;;;;;5045107;28;20053;-46
2023/07/24 05:20:51;;;;;;;13.27;8.57;;;18.70;99.90;;;;;;5043817;28;20049;-40
2023/07/24 05:23:18;;;;;;;14.13;9.27;;;18.70;99.90;;;;;;5049468;28;20081;-38
2023/07/24 05:25:46;;;;;;;16.35;9.52;;;18.70;99.90;;;;;;5049169;28;20048;-40
2023/07/24 05:28:13;;;;;;;14.02;9.23;;;18.80;99.90;;;;;;5049807;28;20091;-43
2023/07/24 05:30:40;;;;;;;16.02;9.95;;;18.90;99.90;;;;;;5050048;28;20068;-41
2023/07/24 05:33:08;;;;;;;15.00;10.00;;;18.90;99.90;;;;;;5049509;28;20099;-41
2023/07/24 05:35:35;;;;;;;19.88;10.32;;;19.00;99.90;;;;;;5048046;28;20055;-46
2023/07/24 05:38:02;;;;;;;19.45;10.52;;;19.10;99.90;;;;;;5048850;28;20123;-41
2023/07/24 05:40:30;;;;;;;17.02;12.13;;;19.10;99.90;;;;;;5044719;28;20089;-43
2023/07/24 05:42:57;;;;;;;17.67;10.68;;;19.20;99.90;;;;;;5040073;28;20132;-39
2023/07/24 05:45:27;;;;;;;21.85;11.95;;;19.30;99.90;;;;;;5039997;28;20429;-46
2023/07/24 05:47:54;;;;;;;18.48;10.80;;;19.40;99.90;;;;;;5042511;28;20433;-44
2023/07/24 05:50:22;;;;;;;16.05;9.82;;;19.60;99.90;;;;;;5045086;28;20132;-44
2023/07/24 05:52:49;;;;;;;13.98;9.25;;;19.70;99.90;;;;;;5044877;28;20044;-43
2023/07/24 05:55:16;;;;;;;17.48;9.50;;;19.90;99.90;;;;;;5030430;28;20128;-45
2023/07/24 05:57:44;;;;;;;16.55;10.10;;;20.00;99.90;;;;;;5049231;28;20055;-39
2023/07/24 06:00:12;;;;;;;14.07;8.63;;;20.20;99.90;;;;;;5048243;28;20614;-42
2023/07/24 06:02:41;;;;;;;14.50;10.25;;;20.30;99.90;;;;;;5048523;28;20053;-42
2023/07/24 06:05:09;;;;;;;20.38;9.82;;;20.60;99.90;;;;;;5044944;28;20536;-46
2023/07/24 06:07:36;;;;;;;13.18;9.57;;;20.80;99.90;;;;;;5045118;28;20071;-44
2023/07/24 06:10:04;;;;;;;14.52;9.32;;;21.00;99.90;;;;;;5046090;28;20446;-47
2023/07/24 06:12:31;;;;;;;16.08;9.43;;;21.20;99.90;;;;;;5052298;28;20060;-45
2023/07/24 06:14:58;;;;;;;15.73;9.48;;;21.20;99.90;;;;;;5047874;28;20056;-48
2023/07/24 06:17:26;;;;;;;17.88;10.02;;;21.50;99.90;;;;;;5044643;28;20406;-46
2023/07/24 06:19:53;;;;;;;24.55;16.73;;;21.50;99.90;;;;;;5047906;28;20128;-44
2023/07/24 06:22:20;;;;;;;17.77;10.15;;;21.50;99.90;;;;;;5044527;28;20051;-48
2023/07/24 06:24:48;;;;;;;14.85;9.85;;;21.60;99.90;;;;;;5044169;28;20045;-40
2023/07/24 06:27:16;;;;;;;15.30;10.07;;;21.70;99.90;;;;;;5048791;28;20452;-45
2023/07/24 06:29:43;;;;;;;19.08;9.82;;;21.70;99.90;;;;;;5028824;28;20132;-49
2023/07/24 06:32:10;;;;;;;18.25;10.40;;;21.70;99.90;;;;;;5047682;28;20437;-45
2023/07/24 06:34:37;;;;;;;15.52;10.23;;;21.70;99.90;;;;;;5044081;28;20508;-44
2023/07/24 06:37:05;;;;;;;17.75;10.00;;;21.70;99.90;;;;;;5041880;28;20056;-46
2023/07/24 06:39:48;;;;;;;13.60;10.05;;;21.70;99.90;;;;;;5042819;28;20124;-47
2023/07/24 06:42:15;;;;;;;14.68;9.93;;;21.70;99.90;;;;;;5048317;28;20041;-44
2023/07/24 06:44:43;;;;;;;16.13;10.90;;;21.70;99.90;;;;;;5047064;28;20578;-45
2023/07/24 06:47:10;;;;;;;15.63;10.18;;;21.80;99.90;;;;;;5048316;28;20045;-44
2023/07/24 06:49:37;;;;;;;14.45;9.45;;;22.00;99.90;;;;;;5039429;28;20059;-45
2023/07/24 06:52:05;;;;;;;15.25;9.82;;;22.10;99.90;;;;;;5047525;28;20071;-41
2023/07/24 06:54:32;;;;;;;14.00;9.75;;;22.30;99.90;;;;;;5047724;28;20123;-46
2023/07/24 06:56:59;;;;;;;14.45;10.15;;;22.50;99.90;;;;;;5048114;28;20051;-47
2023/07/24 06:59:26;;;;;;;16.40;9.70;;;22.80;99.90;;;;;;5047863;28;20079;-43
2023/07/24 07:01:54;;;;;;;15.45;10.10;;;23.00;99.90;;;;;;5045518;28;20148;-51
2023/07/24 07:04:21;;;;;;;14.60;9.52;;;23.10;99.90;;;;;;5045335;28;20317;-51
2023/07/24 07:06:48;;;;;;;15.10;10.43;;;23.30;99.90;;;;;;5042053;28;20588;-47
2023/07/24 07:09:16;;;;;;;15.48;9.95;;;23.30;99.90;;;;;;5040736;28;20045;-55
2023/07/24 07:11:44;;;;;;;13.38;8.80;;;23.30;99.90;;;;;;5044374;28;20045;-54
2023/07/24 07:14:12;;;;;;;14.43;10.48;;;23.50;99.90;;;;;;5043647;28;20102;-49
2023/07/24 07:16:40;;;;;;;13.70;9.55;;;23.50;99.90;;;;;;5043061;28;20423;-48
2023/07/24 07:19:09;;;;;;;19.88;11.77;;;23.40;99.90;;;;;;5045495;28;20044;-47
2023/07/24 07:21:36;;;;;;;14.85;10.10;;;23.50;99.90;;;;;;5042348;28;20282;-51
2023/07/24 07:24:04;;;;;;;13.48;9.55;;;23.50;99.90;;;;;;5046572;28;20137;-48
2023/07/24 07:26:31;;;;;;;25.92;17.67;;;23.60;99.90;;;;;;5046098;28;20041;-48
2023/07/24 07:28:59;;;;;;;19.60;12.82;;;23.80;99.90;;;;;;5047567;28;20053;-46
2023/07/24 07:31:26;;;;;;;17.02;12.30;;;23.80;99.90;;;;;;5045046;28;20103;-47
2023/07/24 07:33:54;;;;;;;14.63;10.73;;;23.90;99.90;;;;;;5045189;28;20060;-51
2023/07/24 07:36:22;;;;;;;13.63;10.18;;;23.80;99.90;;;;;;5043672;28;20141;-54
2023/07/24 07:38:50;;;;;;;15.55;10.40;;;23.70;99.90;;;;;;5045674;28;20449;-50
2023/07/24 07:41:17;;;;;;;13.15;9.73;;;23.80;99.90;;;;;;5045330;28;20464;-49
2023/07/24 07:43:44;;;;;;;15.60;10.32;;;23.60;99.90;;;;;;5036843;28;20144;-52
2023/07/24 07:46:11;;;;;;;13.75;9.75;;;23.90;99.90;;;;;;5045703;28;20095;-48
2023/07/24 07:48:39;;;;;;;14.20;10.02;;;24.00;99.90;;;;;;5045612;28;20456;-50
2023/07/24 07:51:07;;;;;;;13.35;10.13;;;24.00;99.90;;;;;;5047242;28;20114;-47
2023/07/24 07:53:34;;;;;;;13.70;10.63;;;24.00;99.90;;;;;;5045997;28;20049;-49
2023/07/24 07:56:01;;;;;;;15.93;11.38;;;23.80;99.90;;;;;;5047720;28;20080;-51
2023/07/24 07:58:29;;;;;;;20.77;11.10;;;23.50;99.90;;;;;;5048433;28;20568;-50
2023/07/24 08:00:56;;;;;;;16.40;10.00;;;23.30;99.90;;;;;;5050471;28;20067;-50
2023/07/24 08:03:23;;;;;;;14.80;11.27;;;23.20;99.90;;;;;;5049384;28;20257;-51
2023/07/24 08:05:51;;;;;;;15.93;10.45;;;23.20;99.90;;;;;;5051128;28;20115;-50
2023/07/24 08:08:18;;;;;;;15.23;10.43;;;23.10;99.90;;;;;;5049820;28;20517;-48
2023/07/24 08:10:46;;;;;;;15.85;10.77;;;23.10;99.90;;;;;;5049030;28;20490;-53
2023/07/24 08:13:13;;;;;;;17.27;10.43;;;23.10;99.90;;;;;;5050054;28;20033;-53
2023/07/24 08:15:40;;;;;;;18.20;10.75;;;23.00;99.90;;;;;;5049281;28;20048;-50
2023/07/24 08:18:08;;;;;;;21.50;11.02;;;22.90;99.90;;;;;;5048998;28;20044;-49
2023/07/24 08:20:37;;;;;;;14.98;10.70;;;23.00;99.90;;;;;;5048344;28;20048;-55
2023/07/24 08:23:04;;;;;;;20.33;11.80;;;23.20;99.90;;;;;;5050271;28;20045;-51
2023/07/24 08:25:32;;;;;;;15.45;10.40;;;23.20;99.90;;;;;;5050436;28;20048;-52
2023/07/24 08:27:59;;;;;;;14.25;10.90;;;23.30;99.90;;;;;;5050006;28;20053;-49
2023/07/24 08:30:33;;;;;;;12.90;9.90;;;23.40;99.90;;;;;;5049191;28;20040;-50
2023/07/24 08:33:01;;;;;;;15.82;11.20;;;23.60;99.90;;;;;;5049883;28;20052;-53
2023/07/24 08:35:28;;;;;;;16.90;10.77;;;23.60;99.90;;;;;;5049935;28;20056;-50
2023/07/24 08:37:56;;;;;;;12.35;9.90;;;23.60;99.90;;;;;;5049145;28;20515;-49
2023/07/24 08:40:23;;;;;;;17.58;10.15;;;23.80;99.90;;;;;;5049155;28;20135;-50
2023/07/24 08:42:52;;;;;;;14.55;11.20;;;24.00;99.90;;;;;;5049538;28;20541;-49
2023/07/24 08:45:20;;;;;;;16.15;10.43;;;24.10;99.90;;;;;;5047309;28;20061;-48
2023/07/24 08:47:48;;;;;;;15.10;10.32;;;24.20;99.90;;;;;;5050055;28;20045;-52
2023/07/24 08:50:17;;;;;;;14.35;10.57;;;24.40;99.90;;;;;;5048249;28;20040;-51
2023/07/24 08:52:46;;;;;;;18.27;10.88;;;24.50;99.90;;;;;;5050000;28;20045;-51
2023/07/24 08:55:14;;;;;;;17.00;11.25;;;24.50;99.90;;;;;;5050035;28;20129;-50
2023/07/24 08:57:41;;;;;;;16.05;11.18;;;24.60;99.90;;;;;;5049105;28;20045;-48
2023/07/24 09:00:09;;;;;;;22.80;15.35;;;24.70;99.90;;;;;;5049755;28;20076;-49
2023/07/24 09:02:36;;;;;;;16.77;11.15;;;24.70;99.90;;;;;;5048657;28;20054;-49
2023/07/24 09:05:04;;;;;;;16.52;11.43;;;24.70;99.90;;;;;;5048872;28;20041;-51
2023/07/24 09:07:32;;;;;;;15.95;10.15;;;24.70;99.90;;;;;;5048040;28;20055;-54
2023/07/24 09:10:00;;;;;;;16.75;10.63;;;24.90;99.90;;;;;;5048210;28;20091;-49
2023/07/24 09:12:27;;;;;;;15.45;10.73;;;24.80;99.90;;;;;;5032826;28;20142;-46
2023/07/24 09:15:02;;;;;;;15.70;10.85;;;24.60;99.90;;;;;;5047269;28;20144;-48
2023/07/24 09:17:30;;;;;;;15.60;11.48;;;24.50;99.90;;;;;;5048538;28;20052;-53
2023/07/24 09:19:57;;;;;;;17.52;11.50;;;24.60;99.90;;;;;;5045221;28;20084;-52
2023/07/24 09:22:26;;;;;;;15.60;11.43;;;24.50;99.90;;;;;;5047510;28;20145;-53
2023/07/24 09:24:55;;;;;;;14.30;11.13;;;24.70;99.90;;;;;;5048375;28;20048;-51
2023/07/24 09:27:28;;;;;;;16.25;11.05;;;24.70;99.90;;;;;;5047923;28;20545;-54
2023/07/24 09:29:57;;;;;;;15.50;11.18;;;25.00;99.90;;;;;;5047448;28;20045;-50
2023/07/24 09:32:26;;;;;;;16.95;11.13;;;25.20;99.90;;;;;;5047620;28;20114;-53
2023/07/24 09:34:54;;;;;;;14.60;10.52;;;25.20;99.90;;;;;;5046498;28;20044;-54
2023/07/24 09:37:33;;;;;;;15.73;11.55;;;25.10;99.90;;;;;;5045900;28;20053;-55
2023/07/24 09:40:04;;;;;;;14.55;10.75;;;25.40;99.90;;;;;;5028274;28;20048;-53
2023/07/24 09:42:34;;;;;;;15.82;11.60;;;25.50;99.90;;;;;;5043104;28;20457;-50
2023/07/24 09:45:04;;;;;;;15.07;10.43;;;25.50;99.90;;;;;;5041007;28;20045;-52
2023/07/24 09:47:32;;;;;;;16.00;11.07;;;25.70;99.90;;;;;;5046875;28;20437;-53
2023/07/24 09:50:19;;;;;;;16.52;11.95;;;25.70;99.90;;;;;;5049511;28;20509;-53
2023/07/24 09:52:47;;;;;;;15.57;11.70;;;25.50;99.90;;;;;;5047383;28;20135;-53
2023/07/24 09:55:22;;;;;;;19.02;12.50;;;25.40;99.90;;;;;;5048000;28;20094;-48
2023/07/24 09:57:52;;;;;;;13.85;10.93;;;25.40;99.90;;;;;;5039965;28;20420;-47
2023/07/24 10:00:20;;;;;;;18.75;11.38;;;25.30;99.90;;;;;;5047968;28;20056;-55
2023/07/24 10:02:48;;;;;;;16.15;11.05;;;25.20;99.90;;;;;;5048506;28;20491;-50
2023/07/24 10:05:15;;;;;;;14.73;11.65;;;25.10;99.90;;;;;;5049582;28;20091;-50
2023/07/24 10:07:43;;;;;;;15.15;10.60;;;24.90;99.90;;;;;;5046983;28;20089;-47
2023/07/24 10:10:12;;;;;;;15.25;10.43;;;24.90;99.90;;;;;;5046620;28;20125;-49
2023/07/24 10:12:40;;;;;;;15.60;11.05;;;24.70;99.90;;;;;;5046189;28;20119;-49
2023/07/24 10:15:08;;;;;;;14.30;10.60;;;24.50;99.90;;;;;;5047972;28;20053;-51
2023/07/24 10:17:37;;;;;;;14.52;10.82;;;24.40;99.90;;;;;;5046600;28;20053;-51
2023/07/24 10:20:09;;;;;;;23.42;11.15;;;24.30;99.90;;;;;;5049519;28;20551;-48
2023/07/24 10:22:41;;;;;;;13.95;10.98;;;24.20;99.90;;;;;;5047866;28;20480;-48
2023/07/24 10:25:10;;;;;;;16.98;10.57;;;24.10;99.90;;;;;;5048063;28;20045;-50
2023/07/24 10:27:46;;;;;;;15.40;11.07;;;24.00;99.90;;;;;;5045473;28;20045;-43
2023/07/24 10:30:15;;;;;;;13.93;10.50;;;24.00;99.90;;;;;;5047690;28;20052;-47
2023/07/24 10:33:09;;;;;;;13.73;10.55;;;24.10;99.90;;;;;;5047859;28;20029;-47
2023/07/24 10:35:42;;;;;;;15.52;10.23;;;23.90;99.90;;;;;;5047283;28;20455;-53
2023/07/24 10:38:11;;;;;;;14.88;11.20;;;24.00;99.90;;;;;;5047750;28;20060;-51
2023/07/24 10:40:40;;;;;;;14.13;10.30;;;23.90;99.90;;;;;;5047801;28;20685;-48
2023/07/24 10:43:12;;;;;;;16.13;11.07;;;23.90;99.90;;;;;;5045840;28;20132;-46
2023/07/24 10:45:43;;;;;;;18.10;10.35;;;23.90;99.90;;;;;;5046158;28;20095;-43
2023/07/24 10:48:11;;;;;;;15.30;10.73;;;23.90;99.90;;;;;;5047918;28;20136;-47
2023/07/24 10:50:45;;;;;;;15.88;10.95;;;23.80;99.90;;;;;;5048192;28;20055;-50
2023/07/24 10:53:18;;;;;;;15.63;10.30;;;23.80;99.90;;;;;;5045015;28;20132;-48
2023/07/24 10:55:53;;;;;;;14.15;11.25;;;23.70;99.90;;;;;;5039021;28;20485;-49
2023/07/24 10:58:24;;;;;;;15.55;10.77;;;23.60;99.90;;;;;;5044738;28;20087;-53
2023/07/24 11:00:51;;;;;;;17.02;11.13;;;23.60;99.90;;;;;;5039759;28;20041;-51
2023/07/24 11:03:19;;;;;;;24.27;14.68;;;23.50;99.90;;;;;;5046296;28;20451;-51
2023/07/24 11:05:47;;;;;;;16.80;10.38;;;23.40;99.90;;;;;;5046259;28;20079;-46
2023/07/24 11:08:19;;;;;;;18.00;11.80;;;23.30;99.90;;;;;;5046158;28;20457;-48
2023/07/24 11:10:51;;;;;;;15.98;10.75;;;23.20;99.90;;;;;;5046489;28;20068;-46
2023/07/24 11:13:20;;;;;;;15.40;10.13;;;23.20;99.90;;;;;;5042356;28;20079;-55
2023/07/24 11:15:49;;;;;;;17.65;11.15;;;23.10;99.90;;;;;;5044109;28;20487;-46
2023/07/24 11:18:16;;;;;;;15.88;10.55;;;23.00;99.90;;;;;;5044896;28;20041;-50
2023/07/24 11:20:46;;;;;;;14.38;10.30;;;22.90;99.90;;;;;;5051190;28;20514;-48
2023/07/24 11:23:14;;;;;;;17.58;10.20;;;22.80;99.90;;;;;;5050611;28;20497;-46
2023/07/24 11:25:42;;;;;;;15.82;10.63;;;22.70;99.90;;;;;;5054642;28;20583;-46
2023/07/24 11:28:10;;;;;;;14.82;11.18;;;22.70;99.90;;;;;;5050952;28;20124;-45
2023/07/24 11:30:38;;;;;;;15.88;11.05;;;22.60;99.90;;;;;;5045665;28;20037;-47
2023/07/24 11:33:07;;;;;;;16.40;11.07;;;22.60;99.90;;;;;;5045147;28;20102;-44
2023/07/24 11:35:36;;;;;;;15.93;11.40;;;22.70;99.90;;;;;;5045140;28;20063;-47
2023/07/24 11:38:03;;;;;;;18.42;10.85;;;22.70;99.90;;;;;;5045192;28;20040;-45
2023/07/24 11:40:34;;;;;;;15.25;10.52;;;22.80;99.90;;;;;;5046672;28;20087;-54
2023/07/24 11:43:03;;;;;;;16.70;11.20;;;22.80;99.90;;;;;;5042381;28;20146;-48
2023/07/24 11:45:40;;;;;;;20.30;10.70;;;23.00;99.90;;;;;;5042516;28;20516;-47
2023/07/24 11:48:12;;;;;;;17.73;12.15;;;23.10;99.90;;;;;;5045904;28;20125;-50
2023/07/24 11:50:44;;;;;;;18.30;11.52;;;23.30;99.90;;;;;;5045821;28;20145;-46
2023/07/24 11:53:28;;;;;;;16.27;11.50;;;23.40;99.90;;;;;;5045854;28;20108;-49
2023/07/24 11:55:58;;;;;;;18.83;11.30;;;23.40;99.90;;;;;;5039443;28;20124;-51
2023/07/24 11:58:29;;;;;;;17.83;11.25;;;23.40;99.90;;;;;;5044615;28;20047;-49
2023/07/24 12:00:57;;;;;;;14.65;10.30;;;23.40;99.90;;;;;;5045594;28;20063;-46
2023/07/24 12:03:26;;;;;;;14.07;10.75;;;23.50;99.90;;;;;;5044786;28;20521;-55
2023/07/24 12:05:54;;;;;;;13.77;10.57;;;23.60;99.90;;;;;;5046267;28;20577;-50
2023/07/24 12:08:30;;;;;;;15.85;11.90;;;23.60;99.90;;;;;;5042522;28;20401;-50
2023/07/24 12:10:58;;;;;;;15.85;10.10;;;23.60;99.90;;;;;;5038888;28;20049;-51
2023/07/24 12:13:25;;;;;;;13.85;9.40;;;23.90;99.90;;;;;;5043736;28;20042;-46
2023/07/24 12:15:52;;;;;;;12.15;9.30;;;24.10;99.90;;;;;;5045131;28;20552;-48
2023/07/24 12:18:22;;;;;;;11.18;8.15;;;24.10;99.90;;;;;;5044861;28;20053;-54
2023/07/24 12:20:50;;;;;;;10.82;8.73;;;24.20;99.90;;;;;;5046870;28;20136;-58
2023/07/24 12:23:17;;;;;;;9.57;7.53;;;24.20;99.90;;;;;;5045858;28;20051;-58
2023/07/24 12:25:45;;;;;;;10.10;7.78;;;24.20;99.90;;;;;;5046685;28;20064;-53
2023/07/24 12:28:12;;;;;;;9.73;7.57;;;24.10;99.90;;;;;;5045841;28;20132;-54
2023/07/24 12:30:39;;;;;;;11.30;7.97;;;24.10;99.90;;;;;;5044988;28;20048;-53
2023/07/24 12:33:06;;;;;;;8.95;7.00;;;23.90;99.90;;;;;;5045133;28;20049;-52
2023/07/24 12:35:34;;;;;;;8.05;6.95;;;23.90;99.90;;;;;;5042473;28;20041;-47
2023/07/24 12:38:01;;;;;;;9.43;7.78;;;23.70;99.90;;;;;;5046322;28;20071;-47
2023/07/24 12:40:28;;;;;;;10.60;8.23;;;23.60;99.90;;;;;;5044377;28;20111;-57